createdAt,value
2023-07-16T00:00:28.355Z,100338.78
2023-07-16T00:01:01.070Z,100338.63
2023-07-16T00:01:36.572Z,100340.47
2023-07-16T00:02:12.201Z,100339.44
2023-07-16T00:02:45.139Z,100338.19
2023-07-16T00:03:17.824Z,100335.50
2023-07-16T00:03:50.687Z,100334.63
2023-07-16T00:04:26.192Z,100336.91
2023-07-16T00:04:58.742Z,100336.91
2023-07-16T00:05:30.754Z,100332.84
2023-07-16T00:06:03.075Z,100330.16
2023-07-16T00:06:35.401Z,100334.50
2023-07-16T00:07:07.402Z,100339.84
2023-07-16T00:07:39.448Z,100339.84
2023-07-16T00:08:14.874Z,100342.50
2023-07-16T00:08:47.053Z,100335.50
2023-07-16T00:09:19.391Z,100340.22
2023-07-16T00:09:51.390Z,100342.66
2023-07-16T00:10:23.460Z,100342.81
2023-07-16T00:10:55.655Z,100346.72
2023-07-16T00:11:30.651Z,100346.91
2023-07-16T00:12:04.870Z,100340.94
2023-07-16T00:12:36.896Z,100343.78
2023-07-16T00:13:10.543Z,100344.78
2023-07-16T00:13:43.613Z,100351.63
2023-07-16T00:14:16.061Z,100345.44
2023-07-16T00:14:49.152Z,100343.78
2023-07-16T00:15:21.924Z,100345.81
2023-07-16T00:15:54.207Z,100350.13
2023-07-16T00:16:26.848Z,100343.97
2023-07-16T00:16:59.616Z,100343.38
2023-07-16T00:17:31.776Z,100354.47
2023-07-16T00:18:04.079Z,100345.44
2023-07-16T00:18:36.545Z,100347.72
2023-07-16T00:19:10.709Z,100352.06
2023-07-16T00:19:42.755Z,100356.19
2023-07-16T00:20:14.757Z,100352.69
2023-07-16T00:20:46.772Z,100344.88
2023-07-16T00:21:18.882Z,100354.53
2023-07-16T00:21:50.893Z,100355.34
2023-07-16T00:22:22.925Z,100348.38
2023-07-16T00:22:55.956Z,100341.81
2023-07-16T00:23:28.157Z,100341.81
2023-07-16T00:24:00.537Z,100346.75
2023-07-16T00:24:32.563Z,100348.59
2023-07-16T00:25:05.260Z,100346.97
2023-07-16T00:25:38.578Z,100341.16
2023-07-16T00:26:11.036Z,100341.16
2023-07-16T00:26:43.428Z,100339.31
2023-07-16T00:27:19.675Z,100343.84
2023-07-16T00:27:51.734Z,100347.34
2023-07-16T00:28:24.360Z,100343.66
2023-07-16T00:28:59.354Z,100349.19
2023-07-16T00:29:31.615Z,100344.47
2023-07-16T00:30:04.670Z,100340.72
2023-07-16T00:30:36.755Z,100345.69
2023-07-16T00:31:09.044Z,100340.94
2023-07-16T00:31:41.783Z,100345.63
2023-07-16T00:32:14.822Z,100344.59
2023-07-16T00:32:49.881Z,100346.28
2023-07-16T00:33:22.289Z,100341.53
2023-07-16T00:33:54.479Z,100345.88
2023-07-16T00:34:32.444Z,100346.28
2023-07-16T00:35:05.813Z,100342.56
2023-07-16T00:35:37.813Z,100334.19
2023-07-16T00:36:09.810Z,100332.53
2023-07-16T00:36:42.650Z,100340.97
2023-07-16T00:37:14.996Z,100341.81
2023-07-16T00:37:47.498Z,100340.97
2023-07-16T00:38:20.669Z,100345.06
2023-07-16T00:38:52.683Z,100341.53
2023-07-16T00:39:25.384Z,100337.44
2023-07-16T00:39:57.391Z,100343.59
2023-07-16T00:40:29.949Z,100348.13
2023-07-16T00:41:02.011Z,100345.63
2023-07-16T00:41:34.323Z,100340.94
2023-07-16T00:42:06.874Z,100346.28
2023-07-16T00:42:40.562Z,100351.22
2023-07-16T00:43:13.385Z,100342.38
2023-07-16T00:43:45.545Z,100345.50
2023-07-16T00:44:17.598Z,100342.81
2023-07-16T00:44:50.357Z,100338.13
2023-07-16T00:45:22.420Z,100344.66
2023-07-16T00:45:55.226Z,100341.75
2023-07-16T00:46:28.033Z,100338.03
2023-07-16T00:47:00.597Z,100337.03
2023-07-16T00:47:32.843Z,100337.03
2023-07-16T00:48:07.477Z,100339.31
2023-07-16T00:48:41.408Z,100346.31
2023-07-16T00:49:13.774Z,100341.16
2023-07-16T00:49:47.261Z,100335.47
2023-07-16T00:50:20.500Z,100329.66
2023-07-16T00:50:54.782Z,100341.16
2023-07-16T00:51:27.467Z,100342.19
2023-07-16T00:52:00.754Z,100341.53
2023-07-16T00:52:33.188Z,100337.69
2023-07-16T00:53:06.276Z,100339.72
2023-07-16T00:53:39.615Z,100339.72
2023-07-16T00:54:12.661Z,100342.19
2023-07-16T00:54:45.418Z,100340.72
2023-07-16T00:55:24.090Z,100337.22
2023-07-16T00:55:56.414Z,100344.44
2023-07-16T00:56:31.623Z,100331.44
2023-07-16T00:57:04.438Z,100339.09
2023-07-16T00:57:39.804Z,100333.09
2023-07-16T00:58:14.148Z,100328.97
2023-07-16T00:58:49.402Z,100329.16
2023-07-16T00:59:22.277Z,100337.34
2023-07-16T00:59:54.937Z,100331.19
2023-07-16T01:00:27.470Z,100315.75
2023-07-16T01:01:00.034Z,100334.22
2023-07-16T01:01:32.325Z,100329.31
2023-07-16T01:02:05.064Z,100331.19
2023-07-16T01:02:37.656Z,100332.00
2023-07-16T01:03:13.918Z,100332.00
2023-07-16T01:03:49.242Z,100326.66
2023-07-16T01:04:22.264Z,100332.22
2023-07-16T01:04:54.697Z,100328.66
2023-07-16T01:05:42.557Z,100332.78
2023-07-16T01:06:23.743Z,100328.66
2023-07-16T01:07:02.441Z,100331.31
2023-07-16T01:07:40.586Z,100329.72
2023-07-16T01:08:15.495Z,100327.25
2023-07-16T01:08:51.283Z,100328.44
2023-07-16T01:09:23.471Z,100328.78
2023-07-16T01:09:56.188Z,100333.31
2023-07-16T01:10:30.278Z,100326.97
2023-07-16T01:11:05.103Z,100327.97
2023-07-16T01:11:42.729Z,100324.66
2023-07-16T01:12:14.973Z,100326.91
2023-07-16T01:12:53.396Z,100325.03
2023-07-16T01:13:27.728Z,100319.69
2023-07-16T01:14:01.110Z,100321.34
2023-07-16T01:14:33.921Z,100322.19
2023-07-16T01:15:07.008Z,100326.69
2023-07-16T01:15:39.069Z,100324.03
2023-07-16T01:16:20.277Z,100321.34
2023-07-16T01:16:52.602Z,100322.84
2023-07-16T01:17:30.898Z,100329.63
2023-07-16T01:18:05.348Z,100322.84
2023-07-16T01:18:37.788Z,100319.78
2023-07-16T01:19:10.574Z,100327.13
2023-07-16T01:19:45.545Z,100330.19
2023-07-16T01:20:17.768Z,100322.75
2023-07-16T01:20:49.854Z,100317.97
2023-07-16T01:21:24.727Z,100328.84
2023-07-16T01:22:17.471Z,100320.63
2023-07-16T01:23:21.639Z,100330.69
2023-07-16T01:24:41.360Z,100325.66
2023-07-16T01:25:54.878Z,100326.03
2023-07-16T01:26:41.768Z,100327.81
2023-07-16T01:27:45.196Z,100323.19
2023-07-16T01:28:39.993Z,100326.06
2023-07-16T01:29:34.234Z,100328.91
2023-07-16T01:30:10.266Z,100321.91
2023-07-16T01:30:45.932Z,100321.47
2023-07-16T01:31:18.875Z,100323.31
2023-07-16T01:31:52.004Z,100324.69
2023-07-16T01:32:27.157Z,100327.34
2023-07-16T01:33:01.692Z,100331.13
2023-07-16T01:33:35.690Z,100323.56
2023-07-16T01:34:08.475Z,100328.28
2023-07-16T01:34:46.051Z,100324.78
2023-07-16T01:35:18.996Z,100328.53
2023-07-16T01:35:53.176Z,100327.97
2023-07-16T01:36:26.096Z,100323.84
2023-07-16T01:36:58.083Z,100322.56
2023-07-16T01:37:32.570Z,100325.41
2023-07-16T01:38:06.012Z,100323.31
2023-07-16T01:38:38.571Z,100329.31
2023-07-16T01:39:10.927Z,100328.84
2023-07-16T01:39:44.323Z,100322.47
2023-07-16T01:40:20.140Z,100325.63
2023-07-16T01:40:52.443Z,100318.25
2023-07-16T01:41:24.748Z,100316.22
2023-07-16T01:41:56.946Z,100324.25
2023-07-16T01:42:30.104Z,100316.59
2023-07-16T01:43:02.140Z,100316.59
2023-07-16T01:43:34.190Z,100319.25
2023-07-16T01:44:07.082Z,100314.75
2023-07-16T01:44:40.573Z,100317.78
2023-07-16T01:45:12.605Z,100320.63
2023-07-16T01:45:44.731Z,100313.66
2023-07-16T01:46:16.980Z,100317.13
2023-07-16T01:47:05.263Z,100315.75
2023-07-16T01:47:50.934Z,100328.75
2023-07-16T01:48:31.714Z,100315.97
2023-07-16T01:49:03.907Z,100314.28
2023-07-16T01:49:36.022Z,100322.97
2023-07-16T01:50:09.492Z,100314.28
2023-07-16T01:50:42.193Z,100312.72
2023-07-16T01:51:17.841Z,100310.22
2023-07-16T01:51:50.034Z,100316.84
2023-07-16T01:52:22.643Z,100317.84
2023-07-16T01:52:55.270Z,100307.28
2023-07-16T01:53:27.843Z,100315.75
2023-07-16T01:54:00.126Z,100315.97
2023-07-16T01:54:32.628Z,100315.75
2023-07-16T01:55:06.072Z,100318.78
2023-07-16T01:55:38.848Z,100317.78
2023-07-16T01:56:11.342Z,100313.66
2023-07-16T01:56:44.456Z,100319.34
2023-07-16T01:57:16.920Z,100309.13
2023-07-16T01:57:49.433Z,100313.38
2023-07-16T01:58:22.777Z,100315.84
2023-07-16T01:59:02.530Z,100312.63
2023-07-16T01:59:34.876Z,100314.47
2023-07-16T02:00:09.920Z,100316.34
2023-07-16T02:00:46.118Z,100313.19
2023-07-16T02:01:26.097Z,100308.78
2023-07-16T02:01:58.521Z,100318.06
2023-07-16T02:02:30.850Z,100318.91
2023-07-16T02:03:03.557Z,100317.25
2023-07-16T02:03:35.826Z,100321.41
2023-07-16T02:04:07.913Z,100317.72
2023-07-16T02:04:40.384Z,100317.25
2023-07-16T02:05:12.479Z,100316.06
2023-07-16T02:05:44.503Z,100308.06
2023-07-16T02:06:16.865Z,100318.72
2023-07-16T02:06:51.388Z,100314.78
2023-07-16T02:07:23.661Z,100303.19
2023-07-16T02:07:55.765Z,100312.22
2023-07-16T02:08:27.919Z,100314.06
2023-07-16T02:08:59.957Z,100315.59
2023-07-16T02:09:32.295Z,100307.69
2023-07-16T02:10:05.228Z,100318.56
2023-07-16T02:10:37.578Z,100307.75
2023-07-16T02:11:09.572Z,100311.47
2023-07-16T02:11:41.612Z,100316.16
2023-07-16T02:12:13.663Z,100318.81
2023-07-16T02:12:45.869Z,100317.97
2023-07-16T02:13:20.588Z,100317.81
2023-07-16T02:13:52.642Z,100320.47
2023-07-16T02:14:24.871Z,100317.16
2023-07-16T02:14:57.009Z,100313.84
2023-07-16T02:15:30.953Z,100319.81
2023-07-16T02:16:03.355Z,100312.19
2023-07-16T02:16:36.173Z,100310.91
2023-07-16T02:17:10.831Z,100318.34
2023-07-16T02:17:45.941Z,100314.69
2023-07-16T02:18:18.051Z,100312.38
2023-07-16T02:18:50.705Z,100315.50
2023-07-16T02:19:22.984Z,100311.81
2023-07-16T02:19:55.102Z,100316.53
2023-07-16T02:20:27.214Z,100318.34
2023-07-16T02:20:59.325Z,100318.19
2023-07-16T02:21:31.319Z,100318.56
2023-07-16T02:22:03.448Z,100321.56
2023-07-16T02:22:37.063Z,100315.88
2023-07-16T02:23:09.140Z,100316.69
2023-07-16T02:23:41.477Z,100320.75
2023-07-16T02:24:13.728Z,100318.06
2023-07-16T02:24:46.293Z,100320.94
2023-07-16T02:25:18.535Z,100316.78
2023-07-16T02:25:50.565Z,100317.16
2023-07-16T02:26:22.906Z,100319.81
2023-07-16T02:26:54.889Z,100311.53
2023-07-16T02:27:26.876Z,100313.19
2023-07-16T02:27:58.913Z,100319.19
2023-07-16T02:28:30.988Z,100324.31
2023-07-16T02:29:03.107Z,100317.34
2023-07-16T02:29:35.125Z,100321.66
2023-07-16T02:30:08.102Z,100316.53
2023-07-16T02:30:44.036Z,100319.38
2023-07-16T02:31:16.435Z,100321.41
2023-07-16T02:31:48.595Z,100316.41
2023-07-16T02:32:20.740Z,100320.56
2023-07-16T02:32:52.854Z,100323.03
2023-07-16T02:33:24.996Z,100318.34
2023-07-16T02:33:57.068Z,100318.53
2023-07-16T02:34:29.094Z,100325.69
2023-07-16T02:35:01.745Z,100321.41
2023-07-16T02:35:35.020Z,100326.06
2023-07-16T02:36:07.068Z,100324.31
2023-07-16T02:36:39.106Z,100325.97
2023-07-16T02:37:11.243Z,100318.16
2023-07-16T02:37:43.189Z,100332.47
2023-07-16T02:38:15.569Z,100315.50
2023-07-16T02:38:48.010Z,100313.81
2023-07-16T02:39:20.235Z,100315.66
2023-07-16T02:39:55.612Z,100320.81
2023-07-16T02:40:31.130Z,100320.66
2023-07-16T02:41:03.183Z,100317.78
2023-07-16T02:41:35.204Z,100320.19
2023-07-16T02:42:07.310Z,100323.50
2023-07-16T02:42:39.362Z,100319.16
2023-07-16T02:43:11.610Z,100317.31
2023-07-16T02:43:43.632Z,100318.31
2023-07-16T02:44:15.711Z,100322.03
2023-07-16T02:44:47.772Z,100320.66
2023-07-16T02:45:20.359Z,100307.88
2023-07-16T02:45:53.823Z,100320.00
2023-07-16T02:46:26.365Z,100314.41
2023-07-16T02:46:58.717Z,100316.88
2023-07-16T02:47:30.829Z,100319.34
2023-07-16T02:48:03.632Z,100316.88
2023-07-16T02:48:35.747Z,100319.72
2023-07-16T02:49:07.790Z,100320.91
2023-07-16T02:49:41.402Z,100326.22
2023-07-16T02:50:13.559Z,100317.41
2023-07-16T02:50:46.063Z,100315.78
2023-07-16T02:51:18.586Z,100320.59
2023-07-16T02:51:51.153Z,100314.81
2023-07-16T02:52:23.510Z,100315.00
2023-07-16T02:52:55.659Z,100316.84
2023-07-16T02:53:27.886Z,100316.19
2023-07-16T02:54:00.237Z,100310.03
2023-07-16T02:54:32.233Z,100313.72
2023-07-16T02:55:04.980Z,100317.84
2023-07-16T02:55:37.164Z,100318.50
2023-07-16T02:56:09.361Z,100319.06
2023-07-16T02:56:41.386Z,100317.22
2023-07-16T02:57:13.412Z,100315.72
2023-07-16T02:57:45.665Z,100320.06
2023-07-16T02:58:17.636Z,100322.06
2023-07-16T02:58:49.660Z,100320.88
2023-07-16T02:59:21.749Z,100317.84
2023-07-16T02:59:53.779Z,100319.31
2023-07-16T03:00:25.794Z,100319.31
2023-07-16T03:00:59.374Z,100318.22
2023-07-16T03:01:31.652Z,100320.06
2023-07-16T03:02:04.152Z,100317.22
2023-07-16T03:02:36.378Z,100324.84
2023-07-16T03:03:08.507Z,100317.47
2023-07-16T03:03:40.869Z,100322.47
2023-07-16T03:04:13.020Z,100323.47
2023-07-16T03:04:45.098Z,100319.31
2023-07-16T03:05:17.509Z,100331.63
2023-07-16T03:05:49.534Z,100327.13
2023-07-16T03:06:22.845Z,100321.19
2023-07-16T03:06:55.393Z,100326.69
2023-07-16T03:07:27.389Z,100328.50
2023-07-16T03:07:59.450Z,100327.69
2023-07-16T03:08:31.444Z,100331.00
2023-07-16T03:09:04.222Z,100330.19
2023-07-16T03:09:36.217Z,100326.84
2023-07-16T03:10:08.837Z,100321.50
2023-07-16T03:10:41.172Z,100321.50
2023-07-16T03:11:13.519Z,100327.31
2023-07-16T03:11:45.562Z,100323.47
2023-07-16T03:12:17.604Z,100326.13
2023-07-16T03:12:49.802Z,100329.09
2023-07-16T03:13:21.771Z,100326.22
2023-07-16T03:13:53.758Z,100335.53
2023-07-16T03:14:25.761Z,100336.97
2023-07-16T03:14:57.861Z,100331.03
2023-07-16T03:15:29.946Z,100333.16
2023-07-16T03:16:03.462Z,100335.81
2023-07-16T03:16:35.507Z,100329.47
2023-07-16T03:17:07.685Z,100331.78
2023-07-16T03:17:40.061Z,100336.44
2023-07-16T03:18:12.188Z,100332.59
2023-07-16T03:18:45.396Z,100327.81
2023-07-16T03:19:17.501Z,100330.09
2023-07-16T03:19:49.543Z,100327.63
2023-07-16T03:20:21.601Z,100327.97
2023-07-16T03:20:53.596Z,100332.16
2023-07-16T03:21:25.602Z,100337.47
2023-07-16T03:21:57.599Z,100333.97
2023-07-16T03:22:29.780Z,100336.44
2023-07-16T03:23:01.884Z,100333.59
2023-07-16T03:23:33.978Z,100329.28
2023-07-16T03:24:06.484Z,100334.59
2023-07-16T03:24:38.752Z,100333.97
2023-07-16T03:25:11.033Z,100327.44
2023-07-16T03:25:43.152Z,100333.97
2023-07-16T03:26:15.555Z,100329.28
2023-07-16T03:26:47.852Z,100335.63
2023-07-16T03:27:20.589Z,100332.31
2023-07-16T03:27:54.098Z,100330.94
2023-07-16T03:28:26.161Z,100335.06
2023-07-16T03:28:58.287Z,100337.75
2023-07-16T03:29:30.306Z,100333.44
2023-07-16T03:30:02.578Z,100331.56
2023-07-16T03:30:34.672Z,100338.09
2023-07-16T03:31:08.328Z,100339.78
2023-07-16T03:31:40.419Z,100343.44
2023-07-16T03:32:12.409Z,100340.78
2023-07-16T03:32:52.654Z,100347.22
2023-07-16T03:33:25.193Z,100345.75
2023-07-16T03:33:57.246Z,100345.41
2023-07-16T03:34:29.306Z,100343.72
2023-07-16T03:35:01.349Z,100343.72
2023-07-16T03:35:33.394Z,100342.06
2023-07-16T03:36:05.731Z,100343.72
2023-07-16T03:36:37.725Z,100342.72
2023-07-16T03:37:12.315Z,100347.69
2023-07-16T03:37:44.383Z,100344.66
2023-07-16T03:38:16.866Z,100343.66
2023-07-16T03:38:48.896Z,100344.03
2023-07-16T03:39:20.930Z,100349.16
2023-07-16T03:39:53.040Z,100350.53
2023-07-16T03:40:26.868Z,100350.53
2023-07-16T03:40:58.937Z,100357.69
2023-07-16T03:41:30.942Z,100356.84
2023-07-16T03:42:03.089Z,100352.03
2023-07-16T03:42:35.234Z,100354.47
2023-07-16T03:43:07.332Z,100352.28
2023-07-16T03:43:39.375Z,100359.09
2023-07-16T03:44:11.600Z,100354.78
2023-07-16T03:44:43.611Z,100358.91
2023-07-16T03:45:15.717Z,100357.91
2023-07-16T03:45:47.738Z,100359.81
2023-07-16T03:46:21.240Z,100362.16
2023-07-16T03:46:53.322Z,100355.63
2023-07-16T03:47:25.436Z,100357.09
2023-07-16T03:47:57.685Z,100362.25
2023-07-16T03:48:29.840Z,100362.09
2023-07-16T03:49:01.961Z,100362.91
2023-07-16T03:49:34.033Z,100357.59
2023-07-16T03:50:07.341Z,100366.03
2023-07-16T03:50:39.391Z,100366.03
2023-07-16T03:51:11.610Z,100374.06
2023-07-16T03:51:43.739Z,100370.56
2023-07-16T03:52:15.763Z,100370.94
2023-07-16T03:52:48.725Z,100371.56
2023-07-16T03:53:20.754Z,100374.22
2023-07-16T03:53:52.811Z,100373.00
2023-07-16T03:54:24.798Z,100365.28
2023-07-16T03:54:56.869Z,100367.97
2023-07-16T03:55:28.931Z,100371.63
2023-07-16T03:56:00.997Z,100374.13
2023-07-16T03:56:33.032Z,100366.97
2023-07-16T03:57:05.767Z,100370.25
2023-07-16T03:57:37.919Z,100370.09
2023-07-16T03:58:09.953Z,100374.22
2023-07-16T03:58:42.135Z,100364.56
2023-07-16T03:59:14.130Z,100369.91
2023-07-16T03:59:46.257Z,100372.56
2023-07-16T04:00:18.942Z,100364.38
2023-07-16T04:00:51.303Z,100369.53
2023-07-16T04:01:25.109Z,100365.56
2023-07-16T04:01:57.851Z,100373.88
2023-07-16T04:02:30.412Z,100372.00
2023-07-16T04:03:03.180Z,100378.00
2023-07-16T04:03:35.998Z,100366.88
2023-07-16T04:04:08.671Z,100360.88
2023-07-16T04:04:41.376Z,100372.19
2023-07-16T04:05:16.461Z,100368.16
2023-07-16T04:05:48.676Z,100369.63
2023-07-16T04:06:20.729Z,100374.94
2023-07-16T04:06:52.894Z,100368.53
2023-07-16T04:07:24.928Z,100369.81
2023-07-16T04:07:57.323Z,100374.13
2023-07-16T04:08:29.391Z,100379.09
2023-07-16T04:09:01.435Z,100370.72
2023-07-16T04:09:33.644Z,100372.72
2023-07-16T04:10:08.799Z,100375.84
2023-07-16T04:10:40.818Z,100377.13
2023-07-16T04:11:12.887Z,100375.31
2023-07-16T04:11:44.967Z,100382.13
2023-07-16T04:12:17.031Z,100371.81
2023-07-16T04:12:49.157Z,100374.13
2023-07-16T04:13:21.192Z,100381.31
2023-07-16T04:13:53.185Z,100378.44
2023-07-16T04:14:25.184Z,100373.75
2023-07-16T04:14:59.351Z,100374.38
2023-07-16T04:15:31.384Z,100376.03
2023-07-16T04:16:03.550Z,100381.19
2023-07-16T04:16:37.202Z,100381.66
2023-07-16T04:17:09.482Z,100377.16
2023-07-16T04:17:41.757Z,100378.44
2023-07-16T04:18:13.889Z,100376.19
2023-07-16T04:18:45.947Z,100378.66
2023-07-16T04:19:18.005Z,100384.84
2023-07-16T04:19:50.081Z,100375.81
2023-07-16T04:20:22.320Z,100376.47
2023-07-16T04:20:54.484Z,100378.31
2023-07-16T04:21:26.508Z,100371.38
2023-07-16T04:21:58.545Z,100374.69
2023-07-16T04:22:30.660Z,100369.38
2023-07-16T04:23:02.798Z,100377.81
2023-07-16T04:23:34.845Z,100370.81
2023-07-16T04:24:07.580Z,100381.59
2023-07-16T04:24:39.768Z,100378.94
2023-07-16T04:25:14.878Z,100379.53
2023-07-16T04:25:46.948Z,100382.22
2023-07-16T04:26:19.372Z,100386.19
2023-07-16T04:26:51.550Z,100379.84
2023-07-16T04:27:23.585Z,100385.25
2023-07-16T04:27:56.665Z,100377.88
2023-07-16T04:28:28.940Z,100378.34
2023-07-16T04:29:01.231Z,100390.66
2023-07-16T04:29:37.201Z,100377.78
2023-07-16T04:30:09.649Z,100378.38
2023-07-16T04:30:42.271Z,100378.22
2023-07-16T04:31:15.017Z,100381.31
2023-07-16T04:31:48.850Z,100377.25
2023-07-16T04:32:21.213Z,100379.53
2023-07-16T04:32:53.681Z,100371.34
2023-07-16T04:33:26.528Z,100381.44
2023-07-16T04:33:58.618Z,100377.75
2023-07-16T04:34:30.991Z,100380.88
2023-07-16T04:35:03.389Z,100363.19
2023-07-16T04:35:36.300Z,100368.78
2023-07-16T04:36:08.579Z,100377.03
2023-07-16T04:36:40.725Z,100371.13
2023-07-16T04:37:13.053Z,100373.81
2023-07-16T04:37:46.669Z,100382.25
2023-07-16T04:38:19.006Z,100378.56
2023-07-16T04:38:53.179Z,100380.84
2023-07-16T04:39:26.602Z,100383.13
2023-07-16T04:39:58.785Z,100381.09
2023-07-16T04:40:31.137Z,100386.06
2023-07-16T04:41:03.664Z,100387.50
2023-07-16T04:41:35.738Z,100378.47
2023-07-16T04:42:07.820Z,100381.81
2023-07-16T04:42:39.997Z,100380.56
2023-07-16T04:43:12.041Z,100387.22
2023-07-16T04:43:44.118Z,100380.84
2023-07-16T04:44:16.204Z,100383.97
2023-07-16T04:44:48.230Z,100378.63
2023-07-16T04:45:23.487Z,100385.00
2023-07-16T04:45:55.489Z,100382.78
2023-07-16T04:46:27.901Z,100381.75
2023-07-16T04:47:01.343Z,100377.44
2023-07-16T04:47:33.496Z,100382.00
2023-07-16T04:48:06.246Z,100384.94
2023-07-16T04:48:38.466Z,100387.63
2023-07-16T04:49:10.582Z,100385.41
2023-07-16T04:49:42.582Z,100382.53
2023-07-16T04:50:14.624Z,100382.31
2023-07-16T04:50:46.659Z,100391.81
2023-07-16T04:51:18.723Z,100387.91
2023-07-16T04:51:51.134Z,100391.84
2023-07-16T04:52:23.302Z,100390.63
2023-07-16T04:52:55.336Z,100388.59
2023-07-16T04:53:27.670Z,100391.25
2023-07-16T04:54:08.606Z,100394.78
2023-07-16T04:54:40.837Z,100398.06
2023-07-16T04:55:12.848Z,100401.38
2023-07-16T04:55:44.952Z,100397.47
2023-07-16T04:56:17.795Z,100396.47
2023-07-16T04:56:50.002Z,100399.75
2023-07-16T04:57:23.722Z,100398.13
2023-07-16T04:57:56.091Z,100404.13
2023-07-16T04:58:28.585Z,100397.34
2023-07-16T04:59:00.631Z,100404.34
2023-07-16T04:59:32.729Z,100405.00
2023-07-16T05:00:05.954Z,100402.75
2023-07-16T05:00:38.083Z,100407.06
2023-07-16T05:01:10.910Z,100403.19
2023-07-16T05:01:42.971Z,100404.63
2023-07-16T05:02:16.420Z,100411.47
2023-07-16T05:02:48.863Z,100410.41
2023-07-16T05:03:20.986Z,100408.19
2023-07-16T05:03:53.010Z,100402.19
2023-07-16T05:04:25.089Z,100412.31
2023-07-16T05:04:57.149Z,100410.47
2023-07-16T05:05:29.383Z,100405.94
2023-07-16T05:06:01.518Z,100409.44
2023-07-16T05:06:33.556Z,100411.72
2023-07-16T05:07:05.944Z,100403.28
2023-07-16T05:07:37.965Z,100414.63
2023-07-16T05:08:09.953Z,100408.88
2023-07-16T05:08:41.956Z,100413.81
2023-07-16T05:09:14.036Z,100408.25
2023-07-16T05:09:46.039Z,100413.22
2023-07-16T05:10:18.217Z,100413.00
2023-07-16T05:10:50.221Z,100412.63
2023-07-16T05:11:22.201Z,100405.59
2023-07-16T05:11:54.196Z,100411.59
2023-07-16T05:12:26.230Z,100406.84
2023-07-16T05:12:58.320Z,100404.81
2023-07-16T05:13:30.440Z,100411.81
2023-07-16T05:14:02.824Z,100405.22
2023-07-16T05:14:44.675Z,100408.13
2023-07-16T05:15:17.205Z,100414.75
2023-07-16T05:15:49.305Z,100410.81
2023-07-16T05:16:21.492Z,100413.91
2023-07-16T05:16:53.618Z,100411.88
2023-07-16T05:17:27.094Z,100408.53
2023-07-16T05:17:59.404Z,100417.84
2023-07-16T05:18:31.570Z,100415.81
2023-07-16T05:19:03.763Z,100413.16
2023-07-16T05:19:35.802Z,100415.81
2023-07-16T05:20:08.942Z,100412.31
2023-07-16T05:20:41.022Z,100414.56
2023-07-16T05:21:13.007Z,100410.47
2023-07-16T05:21:45.052Z,100408.41
2023-07-16T05:22:17.219Z,100410.88
2023-07-16T05:22:49.343Z,100406.34
2023-07-16T05:23:21.549Z,100406.13
2023-07-16T05:23:53.576Z,100406.97
2023-07-16T05:24:25.592Z,100399.13
2023-07-16T05:24:57.621Z,100395.84
2023-07-16T05:25:32.303Z,100402.44
2023-07-16T05:26:04.772Z,100406.56
2023-07-16T05:26:36.939Z,100398.91
2023-07-16T05:27:09.040Z,100403.03
2023-07-16T05:27:41.031Z,100403.47
2023-07-16T05:28:13.178Z,100404.47
2023-07-16T05:28:45.185Z,100408.63
2023-07-16T05:29:17.217Z,100403.84
2023-07-16T05:29:49.261Z,100401.16
2023-07-16T05:30:21.446Z,100402.81
2023-07-16T05:30:59.503Z,100399.28
2023-07-16T05:31:31.717Z,100395.78
2023-07-16T05:32:04.524Z,100399.28
2023-07-16T05:32:38.159Z,100398.66
2023-07-16T05:33:10.816Z,100402.59
2023-07-16T05:33:42.856Z,100404.84
2023-07-16T05:34:14.843Z,100395.38
2023-07-16T05:34:46.875Z,100401.56
2023-07-16T05:35:18.966Z,100395.16
2023-07-16T05:35:51.019Z,100402.59
2023-07-16T05:36:23.160Z,100403.22
2023-07-16T05:36:55.876Z,100399.09
2023-07-16T05:37:28.032Z,100404.84
2023-07-16T05:37:59.997Z,100397.00
2023-07-16T05:38:32.032Z,100398.03
2023-07-16T05:39:04.308Z,100402.16
2023-07-16T05:39:36.334Z,100404.63
2023-07-16T05:40:09.096Z,100403.22
2023-07-16T05:40:41.146Z,100399.91
2023-07-16T05:41:13.210Z,100401.94
2023-07-16T05:41:45.203Z,100406.28
2023-07-16T05:42:17.207Z,100409.56
2023-07-16T05:42:49.423Z,100400.88
2023-07-16T05:43:21.392Z,100401.69
2023-07-16T05:43:53.430Z,100401.69
2023-07-16T05:44:25.765Z,100403.75
2023-07-16T05:44:57.940Z,100405.59
2023-07-16T05:45:30.647Z,100406.44
2023-07-16T05:46:02.780Z,100405.84
2023-07-16T05:46:34.889Z,100395.03
2023-07-16T05:47:07.169Z,100399.16
2023-07-16T05:47:40.655Z,100401.06
2023-07-16T05:48:12.788Z,100405.75
2023-07-16T05:48:45.335Z,100404.56
2023-07-16T05:49:17.607Z,100402.91
2023-07-16T05:49:50.295Z,100406.81
2023-07-16T05:50:22.340Z,100404.72
2023-07-16T05:50:54.330Z,100405.75
2023-07-16T05:51:26.389Z,100404.91
2023-07-16T05:51:58.519Z,100403.06
2023-07-16T05:52:31.005Z,100408.41
2023-07-16T05:53:03.129Z,100408.34
2023-07-16T05:53:35.128Z,100406.91
2023-07-16T05:54:07.244Z,100403.97
2023-07-16T05:54:39.330Z,100407.22
2023-07-16T05:55:11.367Z,100406.41
2023-07-16T05:55:43.785Z,100403.28
2023-07-16T05:56:16.092Z,100411.28
2023-07-16T05:56:48.506Z,100398.03
2023-07-16T05:57:20.488Z,100397.97
2023-07-16T05:57:52.849Z,100411.97
2023-07-16T05:58:24.978Z,100409.38
2023-07-16T05:58:57.137Z,100407.50
2023-07-16T05:59:29.200Z,100411.00
2023-07-16T06:00:01.234Z,100409.91
2023-07-16T06:00:33.357Z,100409.25
2023-07-16T06:01:05.471Z,100407.53
2023-07-16T06:01:37.570Z,100408.31
2023-07-16T06:02:09.663Z,100410.31
2023-07-16T06:02:43.337Z,100415.66
2023-07-16T06:03:15.488Z,100411.09
2023-07-16T06:03:50.731Z,100410.75
2023-07-16T06:04:22.707Z,100409.63
2023-07-16T06:04:54.857Z,100409.81
2023-07-16T06:05:26.873Z,100416.78
2023-07-16T06:05:58.971Z,100413.94
2023-07-16T06:06:31.812Z,100417.81
2023-07-16T06:07:04.353Z,100418.97
2023-07-16T06:07:36.410Z,100416.66
2023-07-16T06:08:08.405Z,100412.47
2023-07-16T06:08:40.424Z,100412.13
2023-07-16T06:09:12.451Z,100417.81
2023-07-16T06:09:44.915Z,100411.28
2023-07-16T06:10:17.632Z,100414.06
2023-07-16T06:10:50.070Z,100410.22
2023-07-16T06:11:22.109Z,100411.22
2023-07-16T06:11:54.329Z,100406.34
2023-07-16T06:12:26.679Z,100409.25
2023-07-16T06:12:58.954Z,100408.13
2023-07-16T06:13:31.043Z,100407.44
2023-07-16T06:14:03.056Z,100411.41
2023-07-16T06:14:35.220Z,100411.66
2023-07-16T06:15:08.158Z,100409.59
2023-07-16T06:15:40.218Z,100410.13
2023-07-16T06:16:12.258Z,100404.59
2023-07-16T06:16:44.416Z,100411.94
2023-07-16T06:17:16.446Z,100415.88
2023-07-16T06:17:49.947Z,100408.72
2023-07-16T06:18:22.234Z,100411.25